Time;durP1;ratioP1;P1;durP2;ratioP2;P2;SDS_P1;SDS_P2;PMS_P1;PMS_P2;Temp;Humidity;BMP_temperature;BMP_pressure;BME280_temperature;BME280_humidity;BME280_pressure;Samples;Min_cycle;Max_cycle;Signal;HPM_P1;HPM_P2
2023/05/15 00:01:21;;;;;;;10.40;4.30;;;;;;;41.39;35.66;101247.25;5033260;28;20408;-83
2023/05/15 00:03:47;;;;;;;8.23;3.13;;;;;;;41.48;35.57;101249.94;5032354;28;20923;-82
2023/05/15 00:06:13;;;;;;;9.40;4.20;;;;;;;41.47;35.50;101237.47;5016185;28;20509;-82
2023/05/15 00:08:39;;;;;;;11.23;3.63;;;;;;;41.45;35.98;101247.88;5032555;28;20411;-83
2023/05/15 00:11:05;;;;;;;9.07;3.30;;;;;;;41.66;35.54;101254.25;5032557;28;20802;-81
2023/05/15 00:13:31;;;;;;;9.73;3.40;;;;;;;41.19;36.16;101245.13;5026345;28;20431;-82
2023/05/15 00:15:57;;;;;;;8.80;4.00;;;;;;;41.13;36.37;101238.22;5012550;28;20456;-82
2023/05/15 00:18:23;;;;;;;12.43;3.93;;;;;;;40.72;37.49;101237.53;5018487;28;20467;-81
2023/05/15 00:20:49;;;;;;;8.13;3.77;;;;;;;40.90;37.20;101235.66;5016159;28;20474;-81
2023/05/15 00:23:15;;;;;;;9.93;4.00;;;;;;;40.85;37.87;101243.16;5015672;28;20661;-82
2023/05/15 00:25:41;;;;;;;10.67;4.50;;;;;;;41.04;37.40;101252.66;5015677;28;20419;-82
2023/05/15 00:28:07;;;;;;;10.50;4.33;;;;;;;40.83;38.02;101239.97;5015463;28;20296;-82
2023/05/15 00:30:33;;;;;;;17.10;4.50;;;;;;;40.64;38.24;101235.59;5015694;28;20669;-82
2023/05/15 00:32:59;;;;;;;12.40;4.07;;;;;;;40.83;38.35;101229.06;5029419;28;20184;-82
2023/05/15 00:35:25;;;;;;;10.67;4.13;;;;;;;40.69;38.54;101229.97;5035612;28;20208;-84
2023/05/15 00:37:51;;;;;;;16.33;4.60;;;;;;;40.31;38.86;101226.97;5026120;28;20307;-84
2023/05/15 00:40:22;;;;;;;11.10;4.57;;;;;;;40.47;38.36;101217.31;5026910;28;20493;-84
2023/05/15 00:42:50;;;;;;;9.67;4.33;;;;;;;40.69;37.84;101219.09;5035243;28;20415;-81
2023/05/15 00:45:17;;;;;;;11.53;4.13;;;;;;;40.51;38.00;101206.59;5035142;28;20434;-82
2023/05/15 00:47:44;;;;;;;14.77;6.50;;;;;;;40.71;37.44;101197.84;5035004;28;20490;-81
2023/05/15 00:50:11;;;;;;;11.03;5.13;;;;;;;40.38;38.19;101212.91;5034979;28;20951;-82
2023/05/15 00:52:37;;;;;;;11.70;5.70;;;;;;;40.29;38.31;101194.69;5034994;28;20970;-82
2023/05/15 00:55:03;;;;;;;10.80;4.80;;;;;;;40.49;37.65;101190.59;5035046;28;20415;-85
2023/05/15 00:57:30;;;;;;;11.67;6.30;;;;;;;40.58;37.62;101190.63;5034979;28;20411;-84
2023/05/15 00:59:58;;;;;;;13.10;5.77;;;;;;;40.20;38.24;101196.53;5034761;28;20470;-83
2023/05/15 01:02:24;;;;;;;17.30;5.43;;;;;;;40.18;37.92;101184.41;5034802;28;20854;-82
2023/05/15 01:04:50;;;;;;;14.10;6.77;;;;;;;40.22;38.15;101180.75;5014998;28;20424;-82
2023/05/15 01:07:15;;;;;;;11.50;5.13;;;;;;;40.22;38.35;101164.44;5026659;28;20295;-82
2023/05/15 01:09:44;;;;;;;10.43;5.10;;;;;;;40.25;38.09;101165.72;5034976;28;20977;-82
2023/05/15 01:12:13;;;;;;;13.23;8.10;;;;;;;40.07;38.27;101177.63;5052886;28;20964;-82
2023/05/15 01:14:39;;;;;;;17.40;5.67;;;;;;;40.45;37.93;101180.63;5034292;28;20418;-82
2023/05/15 01:17:05;;;;;;;14.73;6.20;;;;;;;40.26;38.12;101178.97;5067913;28;20441;-82
2023/05/15 01:19:31;;;;;;;10.67;4.60;;;;;;;40.58;37.58;101159.91;5034719;28;20973;-82
2023/05/15 01:22:30;;;;;;;13.33;5.67;;;;;;;40.41;37.74;101160.66;5034710;28;20513;-82
2023/05/15 01:25:08;;;;;;;12.43;5.07;;;;;;;40.44;37.39;101147.22;5035019;28;20714;-82
2023/05/15 01:27:36;;;;;;;11.73;5.73;;;;;;;40.21;38.05;101143.81;5024492;28;20489;-82
2023/05/15 01:30:21;;;;;;;15.20;4.80;;;;;;;40.36;37.43;101139.84;5014787;28;20423;-84
2023/05/15 01:33:04;;;;;;;12.23;5.03;;;;;;;40.82;37.00;101146.63;5014828;28;20415;-84
2023/05/15 01:35:40;;;;;;;11.50;5.93;;;;;;;40.97;36.66;101151.66;5014725;28;20466;-84
2023/05/15 01:38:12;;;;;;;15.30;6.60;;;;;;;41.11;36.67;101170.53;5014729;28;20807;-82
2023/05/15 01:40:39;;;;;;;19.73;7.67;;;;;;;41.06;36.57;101149.69;5014643;28;20420;-82
2023/05/15 01:43:15;;;;;;;24.07;7.73;;;;;;;41.18;36.75;101148.25;5014725;28;20451;-82
2023/05/15 01:45:43;;;;;;;26.53;7.40;;;;;;;41.22;36.63;101158.19;5014614;28;20442;-82
2023/05/15 01:48:12;;;;;;;14.80;7.17;;;;;;;41.13;37.06;101159.31;5014686;28;20975;-82
2023/05/15 01:50:40;;;;;;;17.97;7.40;;;;;;;41.22;37.33;101177.25;5014570;28;20506;-82
2023/05/15 01:53:07;;;;;;;15.80;7.40;;;;;;;41.30;37.30;101190.03;5014475;28;20439;-82
2023/05/15 01:55:35;;;;;;;16.27;6.83;;;;;;;41.28;37.67;101167.78;5026083;28;20407;-84
2023/05/15 01:58:03;;;;;;;21.37;8.63;;;;;;;41.36;37.63;101151.78;5034269;28;20518;-84
2023/05/15 02:00:30;;;;;;;24.17;7.73;;;;;;;41.36;37.64;101127.28;5034125;28;20425;-82
2023/05/15 02:02:57;;;;;;;19.83;7.80;;;;;;;41.24;37.94;101109.66;5034215;28;20438;-82
2023/05/15 02:05:24;;;;;;;27.40;9.47;;;;;;;41.00;38.34;101107.44;5034207;28;20414;-83
2023/05/15 02:07:50;;;;;;;36.70;11.33;;;;;;;40.97;38.64;101142.69;5034064;28;20454;-83
2023/05/15 02:10:18;;;;;;;26.93;9.27;;;;;;;40.85;38.40;101139.78;5034143;28;20434;-82
2023/05/15 02:12:44;;;;;;;19.83;7.40;;;;;;;40.84;38.44;101147.13;5034190;28;20421;-82
2023/05/15 02:15:12;;;;;;;28.80;10.90;;;;;;;41.00;38.42;101147.47;5052356;28;20430;-82
2023/05/15 02:17:38;;;;;;;15.70;7.23;;;;;;;40.97;38.23;101140.75;5034069;28;20414;-82
2023/05/15 02:20:05;;;;;;;23.97;7.00;;;;;;;40.96;38.02;101152.78;5030253;28;20526;-85
2023/05/15 02:22:31;;;;;;;19.73;7.73;;;;;;;40.87;38.42;101153.84;5026865;28;20458;-84
2023/05/15 02:24:57;;;;;;;13.20;6.43;;;;;;;40.85;38.49;101159.63;5028792;28;20423;-84
2023/05/15 02:27:39;;;;;;;22.13;7.23;;;;;;;40.86;38.60;101171.28;5034356;28;20816;-84
2023/05/15 02:30:25;;;;;;;18.60;7.30;;;;;;;40.99;38.68;101187.50;5031306;28;20197;-84
2023/05/15 02:33:03;;;;;;;18.87;7.77;;;;;;;41.05;38.50;101209.91;5014698;28;20411;-84
2023/05/15 02:35:45;;;;;;;12.83;6.53;;;;;;;41.09;38.47;101229.91;5014578;28;21056;-84
2023/05/15 02:38:16;;;;;;;14.70;6.43;;;;;;;41.12;38.63;101261.94;5014583;28;20936;-84
2023/05/15 02:40:45;;;;;;;18.90;8.63;;;;;;;41.17;39.22;101348.06;5014414;28;20431;-84
2023/05/15 02:43:13;;;;;;;20.20;7.90;;;;;;;40.71;39.59;101509.84;5014501;28;20420;-84
2023/05/15 03:36:59;;;;;;;12.60;7.13;;;;;;;37.79;39.91;101304.91;5153833;27;20829;-84
2023/05/15 03:39:25;;;;;;;9.17;5.07;;;;;;;38.09;39.29;101292.81;5128411;28;20431;-82
2023/05/15 03:41:51;;;;;;;11.97;4.17;;;;;;;38.26;38.89;101292.28;5127076;28;20527;-81
2023/05/15 03:44:17;;;;;;;9.27;3.50;;;;;;;38.41;38.09;101281.16;5120256;28;20848;-81
2023/05/15 03:46:43;;;;;;;9.90;3.67;;;;;;;38.58;37.54;101290.63;5128017;28;20180;-81
2023/05/15 03:49:08;;;;;;;9.27;3.50;;;;;;;38.81;37.70;101314.06;5129104;28;20173;-81
2023/05/15 03:51:34;;;;;;;9.60;3.00;;;;;;;38.88;37.03;101297.38;5128704;28;20839;-81
2023/05/15 03:54:03;;;;;;;9.80;2.80;;;;;;;39.07;37.18;101310.81;5128794;28;20280;-83
2023/05/15 03:56:31;;;;;;;8.70;3.97;;;;;;;38.99;36.77;101304.22;5128223;28;20185;-83
2023/05/15 03:58:57;;;;;;;11.10;4.13;;;;;;;39.05;36.91;101297.56;5128697;28;20421;-83
2023/05/15 04:01:23;;;;;;;32.13;20.03;;;;;;;39.08;36.90;101296.16;5128616;28;20431;-84
2023/05/15 04:03:49;;;;;;;12.60;5.73;;;;;;;39.01;36.93;101282.19;5128513;28;20422;-84
2023/05/15 04:06:15;;;;;;;17.20;5.07;;;;;;;38.99;36.75;101262.72;5128746;28;20174;-83
2023/05/15 04:08:41;;;;;;;10.10;4.07;;;;;;;38.89;36.68;101250.16;5128432;28;20801;-83
2023/05/15 04:11:09;;;;;;;12.53;5.50;;;;;;;38.80;37.11;101241.16;5128477;28;21059;-83
2023/05/15 04:13:34;;;;;;;10.23;3.90;;;;;;;38.74;37.14;101231.53;5128321;28;20412;-83
2023/05/15 04:16:01;;;;;;;9.07;4.10;;;;;;;38.83;36.89;101232.41;5128572;28;20873;-83
2023/05/15 04:18:27;;;;;;;11.87;4.57;;;;;;;38.89;37.48;101239.31;5128160;28;20178;-83
2023/05/15 04:20:53;;;;;;;13.67;4.47;;;;;;;38.81;37.07;101240.03;5128247;28;20415;-84
2023/05/15 04:23:19;;;;;;;12.53;4.27;;;;;;;38.93;36.66;101251.19;5127347;28;20683;-83
2023/05/15 04:25:45;;;;;;;12.40;4.70;;;;;;;38.96;37.13;101251.34;5133784;27;20192;-83
2023/05/15 04:28:12;;;;;;;10.80;4.70;;;;;;;39.11;36.70;101263.00;5149917;27;20439;-84
2023/05/15 04:30:38;;;;;;;10.03;4.17;;;;;;;39.01;36.85;101276.78;5148265;27;20419;-84
2023/05/15 04:33:04;;;;;;;10.37;5.53;;;;;;;38.90;36.77;101276.97;5146440;27;20433;-83
2023/05/15 04:35:30;;;;;;;14.10;5.10;;;;;;;39.07;36.57;101289.94;5149957;27;20466;-84
2023/05/15 04:37:56;;;;;;;12.17;4.70;;;;;;;39.18;37.12;101306.81;5133595;27;20505;-83
2023/05/15 04:40:22;;;;;;;11.50;5.10;;;;;;;39.09;36.32;101306.69;5114328;28;20545;-83
2023/05/15 04:42:48;;;;;;;9.70;4.50;;;;;;;39.20;36.41;101307.31;5114943;27;20540;-83
2023/05/15 04:45:14;;;;;;;13.10;5.30;;;;;;;39.29;36.34;101313.66;5134578;27;21066;-83
2023/05/15 04:47:40;;;;;;;13.90;6.43;;;;;;;39.40;36.39;101317.72;5132271;27;20178;-84
2023/05/15 04:50:07;;;;;;;11.47;4.70;;;;;;;39.44;36.52;101326.88;5134271;27;20796;-83
2023/05/15 04:52:33;;;;;;;16.23;5.50;;;;;;;39.36;36.22;101322.16;5133868;27;20423;-84
2023/05/15 04:54:59;;;;;;;9.07;4.57;;;;;;;39.26;36.08;101318.88;5134637;27;20543;-83
2023/05/15 04:57:26;;;;;;;14.50;6.13;;;;;;;39.15;36.33;101313.63;5134018;27;20453;-84
2023/05/15 04:59:52;;;;;;;12.60;4.07;;;;;;;39.34;36.52;101318.94;5133641;27;20458;-83
2023/05/15 05:02:22;;;;;;;19.80;4.90;;;;;;;39.37;36.45;101314.81;5129404;27;20420;-84
2023/05/15 05:04:48;;;;;;;12.17;5.97;;;;;;;39.34;36.12;101312.72;5134063;27;20415;-83
2023/05/15 05:07:14;;;;;;;13.00;5.33;;;;;;;39.08;36.34;101323.28;5118102;27;20472;-83
2023/05/15 05:09:40;;;;;;;13.00;4.70;;;;;;;39.02;36.64;101322.59;5122940;27;20276;-83
2023/05/15 05:12:10;;;;;;;16.67;5.40;;;;;;;39.06;36.49;101326.31;5118181;27;20412;-84
2023/05/15 05:14:36;;;;;;;14.63;4.50;;;;;;;39.08;36.46;101328.72;5123138;27;20511;-83
2023/05/15 05:17:02;;;;;;;12.00;3.67;;;;;;;39.28;36.81;101333.72;5118079;27;20419;-83
2023/05/15 05:19:28;;;;;;;14.43;4.80;;;;;;;38.89;37.00;101331.53;5114974;27;20489;-83
2023/05/15 05:21:57;;;;;;;10.40;4.23;;;;;;;38.79;36.61;101335.25;5116113;27;20431;-83
2023/05/15 05:24:23;;;;;;;10.20;4.90;;;;;;;38.75;36.90;101325.31;5133964;27;20454;-83
2023/05/15 05:26:49;;;;;;;11.83;5.33;;;;;;;38.70;36.74;101323.47;5133315;27;20439;-83
2023/05/15 05:29:15;;;;;;;11.13;4.33;;;;;;;38.45;37.53;101322.03;5132999;27;20415;-84
2023/05/15 05:31:41;;;;;;;10.90;4.43;;;;;;;38.57;37.38;101322.34;5133177;27;20785;-84
2023/05/15 05:34:08;;;;;;;11.20;4.40;;;;;;;38.18;37.89;101320.84;5133553;27;20208;-83
2023/05/15 05:36:35;;;;;;;10.07;4.30;;;;;;;38.30;37.75;101327.72;5133125;27;20776;-83
2023/05/15 05:39:03;;;;;;;10.53;3.50;;;;;;;38.60;37.23;101318.22;5123886;27;20419;-83
2023/05/15 05:41:29;;;;;;;16.13;5.50;;;;;;;38.67;37.30;101340.31;5116469;27;20415;-84
2023/05/15 05:43:55;;;;;;;9.90;4.03;;;;;;;38.63;37.56;101340.13;5133301;27;20422;-83
2023/05/15 05:46:21;;;;;;;9.73;3.60;;;;;;;38.89;37.29;101342.38;5133052;27;20976;-83
2023/05/15 05:48:47;;;;;;;13.63;6.27;;;;;;;38.89;36.58;101347.81;5133753;27;20264;-85
2023/05/15 05:51:13;;;;;;;13.60;5.90;;;;;;;38.82;37.09;101347.41;5123786;27;20415;-83
2023/05/15 05:53:39;;;;;;;15.00;5.43;;;;;;;38.61;37.57;101342.34;5123101;27;20254;-83
2023/05/15 05:56:22;;;;;;;11.40;4.77;;;;;;;38.40;37.90;101341.91;5113237;28;20451;-86
2023/05/15 05:58:48;;;;;;;9.53;5.03;;;;;;;38.27;37.83;101341.88;5127086;27;20504;-88
2023/05/15 06:01:15;;;;;;;9.50;5.53;;;;;;;38.18;37.88;101353.38;5129729;27;20412;-84
2023/05/15 06:03:42;;;;;;;15.13;4.97;;;;;;;38.28;37.95;101329.94;5117769;27;20427;-84
2023/05/15 06:06:09;;;;;;;12.07;5.03;;;;;;;38.72;37.45;101348.41;5135753;27;20510;-83
2023/05/15 06:08:35;;;;;;;13.20;4.80;;;;;;;38.53;37.36;101347.63;5135642;27;20865;-84
2023/05/15 06:11:02;;;;;;;11.23;4.80;;;;;;;38.40;37.79;101336.47;5123395;27;20450;-85
2023/05/15 06:13:31;;;;;;;13.03;4.13;;;;;;;38.69;37.58;101347.06;5121545;27;20185;-84
2023/05/15 06:15:57;;;;;;;16.40;5.63;;;;;;;38.70;36.88;101345.16;5115195;28;20447;-84
2023/05/15 06:18:24;;;;;;;10.20;4.70;;;;;;;38.78;37.33;101349.91;5114519;27;20850;-84
2023/05/15 06:20:50;;;;;;;10.83;4.00;;;;;;;38.82;36.92;101352.84;5114325;28;20442;-86
2023/05/15 06:23:16;;;;;;;11.00;4.67;;;;;;;38.48;37.66;101343.09;5127021;27;20458;-86
2023/05/15 06:25:42;;;;;;;12.50;4.50;;;;;;;38.75;37.32;101333.44;5121444;27;21015;-84
2023/05/15 06:28:08;;;;;;;10.70;5.00;;;;;;;38.63;37.52;101329.28;5131388;27;20188;-82
2023/05/15 06:30:34;;;;;;;14.70;5.40;;;;;;;38.70;37.69;101339.72;5132503;27;20419;-85
2023/05/15 06:33:00;;;;;;;12.17;5.53;;;;;;;38.81;37.58;101343.09;5132021;27;20435;-83
2023/05/15 06:35:26;;;;;;;14.20;5.13;;;;;;;38.75;37.33;101330.75;5124982;27;20843;-83
2023/05/15 06:37:52;;;;;;;12.20;5.60;;;;;;;38.77;37.48;101314.97;5112287;28;20209;-81
2023/05/15 06:40:20;;;;;;;8.90;4.30;;;;;;;38.78;37.40;101324.69;5132637;27;20764;-81
2023/05/15 06:42:46;;;;;;;10.40;5.37;;;;;;;38.93;37.33;101321.69;5132021;27;20439;-81
2023/05/15 06:45:12;;;;;;;8.70;4.60;;;;;;;38.78;37.57;101322.78;5132205;27;20795;-81
2023/05/15 06:47:38;;;;;;;11.37;3.77;;;;;;;38.65;37.63;101327.06;5131796;27;20407;-81
2023/05/15 06:50:05;;;;;;;13.73;4.10;;;;;;;38.73;37.49;101332.94;5132060;27;20891;-81
2023/05/15 06:52:31;;;;;;;10.30;4.90;;;;;;;38.78;37.35;101322.78;5130714;27;20570;-82
2023/05/15 06:54:57;;;;;;;9.37;3.70;;;;;;;38.59;37.60;101320.13;5131612;27;20447;-83
2023/05/15 06:57:23;;;;;;;11.60;4.07;;;;;;;38.86;37.33;101310.47;5131211;27;20415;-84
2023/05/15 06:59:48;;;;;;;10.77;4.87;;;;;;;38.82;36.98;101306.72;5131885;27;20208;-81
2023/05/15 07:02:14;;;;;;;12.87;4.93;;;;;;;38.60;37.30;101272.94;5130660;27;20183;-82
2023/05/15 07:04:40;;;;;;;12.20;4.77;;;;;;;38.80;36.93;101300.81;5128219;27;20180;-82
2023/05/15 07:07:06;;;;;;;8.13;4.40;;;;;;;38.78;37.08;101306.53;5130479;27;20407;-81
2023/05/15 07:09:34;;;;;;;10.93;3.67;;;;;;;38.74;36.75;101299.31;5131975;27;20173;-82
2023/05/15 07:12:00;;;;;;;12.03;4.17;;;;;;;38.65;37.25;101312.72;5120471;27;20408;-81
2023/05/15 07:14:26;;;;;;;8.80;3.53;;;;;;;38.65;37.15;101312.72;5123566;27;20418;-80
2023/05/15 07:16:52;;;;;;;11.17;5.97;;;;;;;38.89;36.75;101305.22;5131759;27;20994;-80
2023/05/15 07:19:19;;;;;;;11.67;4.80;;;;;;;39.00;36.63;101308.53;5124097;27;20465;-80
2023/05/15 07:21:45;;;;;;;9.17;4.47;;;;;;;38.96;36.92;101307.53;5125014;27;20256;-81
2023/05/15 07:24:11;;;;;;;13.27;7.17;;;;;;;39.15;36.59;101296.53;5119362;28;20855;-81
2023/05/15 07:26:37;;;;;;;8.40;4.40;;;;;;;38.96;36.63;101299.38;5131441;28;20934;-81
2023/05/15 07:29:03;;;;;;;11.67;6.40;;;;;;;38.89;36.97;101288.13;5132074;28;20946;-81
2023/05/15 07:31:32;;;;;;;13.13;8.40;;;;;;;38.92;36.86;101287.56;5121275;28;20872;-81
2023/05/15 07:33:58;;;;;;;9.07;4.10;;;;;;;38.87;36.55;101291.16;5122790;28;20503;-81
2023/05/15 07:36:24;;;;;;;11.30;5.13;;;;;;;38.81;36.87;101294.28;5110994;28;21098;-81
2023/05/15 07:38:50;;;;;;;11.40;5.97;;;;;;;38.57;37.48;101297.97;5119482;28;20411;-81
2023/05/15 07:41:16;;;;;;;10.97;5.17;;;;;;;38.58;37.27;101286.00;5131630;28;20409;-81
2023/05/15 07:43:42;;;;;;;15.70;5.07;;;;;;;38.79;37.23;101288.34;5122469;28;20444;-81
2023/05/15 07:46:08;;;;;;;20.47;5.53;;;;;;;38.76;36.89;101272.69;5111510;28;20731;-81
2023/05/15 07:48:34;;;;;;;11.27;5.80;;;;;;;38.81;37.46;101286.16;5120736;28;20480;-82
2023/05/15 07:51:00;;;;;;;9.83;5.40;;;;;;;39.01;36.68;101279.50;5116287;28;20468;-81
2023/05/15 07:53:25;;;;;;;8.90;3.43;;;;;;;38.87;36.85;101280.31;5112010;28;20454;-81
2023/05/15 07:55:52;;;;;;;11.20;5.43;;;;;;;38.91;36.85;101269.63;5112604;28;20202;-81
2023/05/15 07:58:18;;;;;;;16.20;7.40;;;;;;;39.00;36.81;101283.31;5112156;28;20201;-81
2023/05/15 08:00:44;;;;;;;11.77;5.27;;;;;;;38.86;36.92;101277.91;5121459;28;20412;-82
2023/05/15 08:03:10;;;;;;;12.77;6.70;;;;;;;38.85;37.65;101285.22;5113378;28;21027;-82
2023/05/15 08:05:36;;;;;;;15.80;5.50;;;;;;;39.07;36.69;101281.00;5127239;28;20441;-81
2023/05/15 08:08:02;;;;;;;10.03;5.13;;;;;;;39.11;37.07;101284.72;5131627;28;20406;-81
2023/05/15 08:10:28;;;;;;;10.73;5.47;;;;;;;39.31;37.06;101280.75;5123996;28;20427;-80
2023/05/15 08:12:54;;;;;;;13.87;6.93;;;;;;;39.34;36.74;101280.94;5114932;27;20436;-83
2023/05/15 08:15:21;;;;;;;10.30;4.90;;;;;;;39.09;36.82;101285.00;5116832;27;20447;-82
2023/05/15 08:17:46;;;;;;;8.80;5.30;;;;;;;39.13;36.66;101285.19;5116696;27;20464;-82
2023/05/15 08:20:13;;;;;;;14.83;5.80;;;;;;;39.05;36.86;101292.16;5127965;27;20470;-81
2023/05/15 08:22:38;;;;;;;10.17;5.10;;;;;;;38.92;37.02;101288.34;5135050;27;20711;-81
2023/05/15 08:25:05;;;;;;;9.33;5.33;;;;;;;39.10;36.72;101291.22;5133085;27;20410;-84
2023/05/15 08:27:32;;;;;;;12.87;5.47;;;;;;;38.84;36.98;101288.25;5126013;27;20414;-81
2023/05/15 08:29:59;;;;;;;9.40;4.73;;;;;;;38.85;37.34;101284.41;5132078;27;20411;-81
2023/05/15 08:32:26;;;;;;;10.40;4.87;;;;;;;38.50;37.74;101285.91;5116826;27;20427;-81
2023/05/15 08:34:57;;;;;;;10.60;5.73;;;;;;;38.73;37.45;101265.13;5130316;27;20510;-85
2023/05/15 08:37:23;;;;;;;9.47;5.37;;;;;;;38.55;37.68;101259.50;5104470;27;20518;-81
2023/05/15 08:39:49;;;;;;;10.80;5.53;;;;;;;38.73;38.35;101276.78;5118489;27;20507;-84
2023/05/15 08:42:27;;;;;;;11.10;5.47;;;;;;;38.93;37.57;101283.72;5124829;27;20427;-83
2023/05/15 08:44:54;;;;;;;11.80;5.97;;;;;;;39.21;37.12;101274.44;5132477;27;20445;-81
2023/05/15 08:47:20;;;;;;;10.27;5.20;;;;;;;39.43;37.11;101270.19;5135187;27;20791;-81
2023/05/15 08:50:05;;;;;;;10.73;6.03;;;;;;;39.58;36.41;101283.38;5116750;27;20408;-82
2023/05/15 08:52:32;;;;;;;13.27;6.40;;;;;;;39.72;36.18;101286.88;5114956;27;20412;-80
2023/05/15 08:54:59;;;;;;;12.20;6.97;;;;;;;39.80;36.12;101284.53;5122262;27;20446;-80
2023/05/15 08:57:27;;;;;;;10.93;6.80;;;;;;;39.77;35.87;101277.78;5134701;27;20934;-81
2023/05/15 08:59:54;;;;;;;10.40;6.00;;;;;;;39.87;36.38;101280.25;5134628;27;20414;-80
2023/05/15 09:02:20;;;;;;;14.23;6.10;;;;;;;39.87;35.82;101265.88;5130225;27;20451;-82
2023/05/15 09:04:53;;;;;;;13.97;7.33;;;;;;;39.72;36.10;101261.66;5133457;27;20934;-81
2023/05/15 09:07:20;;;;;;;9.30;5.57;;;;;;;39.69;36.50;101263.06;5132436;27;20419;-81
2023/05/15 09:09:47;;;;;;;12.10;6.73;;;;;;;39.50;36.73;101259.69;5123811;27;20412;-80
2023/05/15 09:12:17;;;;;;;16.20;6.33;;;;;;;39.49;36.35;101256.16;5116942;27;20423;-82
2023/05/15 09:14:43;;;;;;;11.47;6.53;;;;;;;39.70;36.47;101256.50;5124582;27;20534;-81
2023/05/15 09:17:10;;;;;;;11.20;7.07;;;;;;;39.69;36.07;101263.06;5130973;27;20523;-82
2023/05/15 09:19:41;;;;;;;13.40;7.90;;;;;;;39.54;36.54;101257.16;5124180;27;20414;-81
2023/05/15 09:22:23;;;;;;;12.00;6.37;;;;;;;39.44;37.03;101242.72;5134287;27;20960;-81
2023/05/15 09:24:51;;;;;;;15.10;7.40;;;;;;;39.71;35.73;101238.28;5121705;27;20420;-81
2023/05/15 09:27:19;;;;;;;13.53;6.90;;;;;;;39.78;35.68;101222.38;5128003;27;20427;-81
2023/05/15 09:29:45;;;;;;;11.20;6.67;;;;;;;39.72;36.04;101221.72;5127657;27;20415;-80
2023/05/15 09:32:17;;;;;;;12.97;6.73;;;;;;;39.75;35.60;101221.06;5113529;28;20419;-81
2023/05/15 09:34:43;;;;;;;10.60;7.53;;;;;;;39.85;35.67;101217.31;5114628;28;20473;-81
2023/05/15 09:37:26;;;;;;;11.93;8.07;;;;;;;39.86;36.02;101204.53;5127034;27;20466;-82
2023/05/15 09:39:52;;;;;;;15.90;10.33;;;;;;;39.58;36.08;101209.28;5127070;27;20404;-81
2023/05/15 09:42:18;;;;;;;12.10;8.17;;;;;;;39.79;35.41;101209.59;5122967;27;20585;-84
2023/05/15 09:44:45;;;;;;;11.93;8.30;;;;;;;39.68;35.75;101198.19;5117407;27;20408;-83
2023/05/15 09:47:17;;;;;;;12.70;9.37;;;;;;;39.68;35.90;101201.72;5120860;27;20227;-81
2023/05/15 09:49:44;;;;;;;13.27;10.33;;;;;;;39.67;36.06;101189.25;5133750;27;20407;-83
2023/05/15 09:52:10;;;;;;;13.43;9.10;;;;;;;39.70;36.07;101191.31;5117381;27;20420;-83
2023/05/15 09:54:36;;;;;;;18.57;8.80;;;;;;;39.73;36.06;101173.63;5127332;27;20412;-82
2023/05/15 09:57:13;;;;;;;14.33;8.33;;;;;;;39.88;35.73;101175.13;5125171;27;20461;-81
2023/05/15 09:59:47;;;;;;;16.77;12.03;;;;;;;39.87;35.38;101158.03;5133726;27;20458;-80
2023/05/15 10:02:21;;;;;;;16.20;10.50;;;;;;;39.93;36.11;101154.06;5117192;27;20415;-81
2023/05/15 10:04:54;;;;;;;17.47;10.17;;;;;;;39.90;35.50;101143.84;5113787;27;20423;-81
2023/05/15 10:07:31;;;;;;;17.80;11.20;;;;;;;39.68;35.94;101147.41;5116277;27;20431;-83
2023/05/15 10:09:58;;;;;;;17.63;11.03;;;;;;;39.74;36.11;101148.06;5133302;27;20468;-83
2023/05/15 10:12:25;;;;;;;18.10;9.57;;;;;;;39.91;36.01;101139.22;5119526;27;20525;-81
2023/05/15 10:14:55;;;;;;;15.63;9.90;;;;;;;40.00;36.03;101142.75;5122445;27;20458;-83
2023/05/15 10:17:25;;;;;;;14.43;9.50;;;;;;;40.06;35.65;101141.50;5117323;27;20429;-82
2023/05/15 10:19:57;;;;;;;21.13;9.53;;;;;;;39.92;35.48;101129.94;5119264;27;20935;-82
2023/05/15 10:22:28;;;;;;;22.27;11.87;;;;;;;39.99;35.87;101133.00;5112688;28;20441;-83
2023/05/15 10:25:12;;;;;;;18.23;12.33;;;;;;;40.02;35.31;101126.91;5126021;27;20510;-83
2023/05/15 10:27:40;;;;;;;19.47;12.03;;;;;;;40.03;35.46;101144.84;5112567;28;20819;-84
2023/05/15 10:30:08;;;;;;;17.33;10.90;;;;;;;40.07;34.94;101132.25;5113507;27;20448;-83
2023/05/15 10:32:35;;;;;;;22.27;12.90;;;;;;;40.04;35.80;101127.44;5118400;27;20513;-85
2023/05/15 10:35:03;;;;;;;18.27;13.20;;;;;;;40.09;35.29;101112.94;5115623;27;20478;-88
2023/05/15 10:37:29;;;;;;;17.57;12.43;;;;;;;40.14;35.49;101102.69;5132610;27;20484;-87
2023/05/15 10:39:57;;;;;;;19.43;11.70;;;;;;;40.18;35.21;101103.66;5131855;27;20423;-87
2023/05/15 10:42:25;;;;;;;15.00;10.50;;;;;;;40.13;35.24;101103.81;5130160;27;21018;-87
2023/05/15 10:44:53;;;;;;;16.37;10.87;;;;;;;40.39;35.26;101111.22;5132442;27;20460;-87
2023/05/15 10:47:19;;;;;;;21.90;15.50;;;;;;;40.42;35.14;101103.25;5132972;27;20472;-87
2023/05/15 10:49:45;;;;;;;21.63;14.03;;;;;;;40.50;35.36;101093.50;5132366;27;20532;-86
2023/05/15 10:52:11;;;;;;;18.90;12.03;;;;;;;40.65;34.73;101103.13;5129171;27;20510;-87
2023/05/15 10:54:38;;;;;;;17.73;10.47;;;;;;;40.54;34.88;101092.56;5129598;27;20414;-86
2023/05/15 10:57:05;;;;;;;15.60;11.07;;;;;;;40.56;34.72;101081.38;5132944;27;20423;-87
2023/05/15 10:59:33;;;;;;;14.63;9.37;;;;;;;40.65;35.33;101087.63;5132022;27;20419;-88
2023/05/15 11:02:22;;;;;;;15.90;10.40;;;;;;;40.61;34.96;101091.28;5132081;27;20411;-87
2023/05/15 11:05:05;;;;;;;13.90;9.37;;;;;;;40.58;35.17;101075.59;5120902;27;20922;-87
2023/05/15 11:07:30;;;;;;;11.90;9.70;;;;;;;40.51;35.16;101065.19;5131918;27;20419;-87
2023/05/15 11:09:57;;;;;;;14.87;9.93;;;;;;;40.47;35.39;101059.63;5131991;27;20427;-85
2023/05/15 11:12:23;;;;;;;19.10;11.97;;;;;;;40.22;36.17;101068.53;5130357;27;20185;-86
2023/05/15 11:14:55;;;;;;;24.13;12.20;;;;;;;40.08;36.00;101100.44;5131234;27;20984;-86
2023/05/15 11:17:25;;;;;;;19.70;12.87;;;;;;;40.48;35.83;101109.34;5130249;28;20968;-85
2023/05/15 11:19:51;;;;;;;29.70;13.57;;;;;;;40.65;35.52;101114.81;5131208;27;20451;-85
2023/05/15 11:22:32;;;;;;;12.67;9.20;;;;;;;40.64;35.12;101096.91;5122303;27;20845;-86
2023/05/15 11:25:07;;;;;;;15.10;11.10;;;;;;;40.44;35.44;101079.25;5124766;28;20558;-85
2023/05/15 11:27:39;;;;;;;27.57;18.43;;;;;;;40.52;35.22;101077.72;5132213;28;20507;-86
2023/05/15 11:30:19;;;;;;;18.43;13.00;;;;;;;40.38;35.86;101052.53;5130523;28;20497;-85
2023/05/15 11:33:04;;;;;;;16.43;12.03;;;;;;;40.11;35.98;101038.13;5122114;27;20419;-77
2023/05/15 11:35:48;;;;;;;16.83;10.50;;;;;;;40.35;36.05;101039.59;5111217;28;20486;-84
2023/05/15 11:38:16;;;;;;;24.00;10.47;;;;;;;40.35;36.26;101053.19;5111296;28;20939;-80
2023/05/15 11:40:57;;;;;;;19.80;11.60;;;;;;;40.43;35.81;101079.56;5111330;28;20420;-80
2023/05/15 11:43:34;;;;;;;24.70;9.83;;;;;;;40.49;35.84;101122.63;5125145;28;20438;-81
2023/05/15 11:46:06;;;;;;;15.03;7.97;;;;;;;40.52;35.45;101167.44;5131409;27;20435;-80
2023/05/15 11:48:38;;;;;;;14.90;7.20;;;;;;;40.63;35.47;101195.91;5129933;27;20791;-79
2023/05/15 11:51:05;;;;;;;14.03;6.70;;;;;;;40.69;36.01;101193.81;5132278;27;20418;-78
2023/05/15 11:53:32;;;;;;;9.83;5.93;;;;;;;40.71;35.50;101195.13;5116006;27;20451;-78
2023/05/15 11:55:58;;;;;;;14.13;6.90;;;;;;;40.69;35.67;101191.13;5129126;27;20554;-81
2023/05/15 11:58:25;;;;;;;12.13;5.20;;;;;;;40.66;35.35;101181.69;5129832;27;20786;-81
2023/05/15 12:00:52;;;;;;;10.70;4.60;;;;;;;40.68;35.50;101163.13;5122407;27;20931;-79
2023/05/15 12:03:24;;;;;;;16.17;5.73;;;;;;;40.71;35.65;101129.84;5133680;27;20483;-78
2023/05/15 12:05:52;;;;;;;12.37;6.23;;;;;;;40.54;35.86;101089.06;5132666;27;20907;-79
2023/05/15 12:08:20;;;;;;;11.47;5.80;;;;;;;40.57;35.89;101047.59;5115901;27;20448;-80
2023/05/15 12:10:46;;;;;;;12.37;5.80;;;;;;;40.57;35.63;101038.66;5129136;27;20411;-80
2023/05/15 12:13:14;;;;;;;14.00;5.60;;;;;;;40.66;35.90;101031.31;5115580;27;20412;-80